sensor_id;sensor_type;location;lat;lon;timestamp;P1;durP1;ratioP1;P2;durP2;ratioP2
9080;SDS011;13509;50.760;6.080;2024-03-22T00:01:45;18.73;;;11.00;;
9080;SDS011;13509;50.760;6.080;2024-03-22T00:04:11;17.83;;;11.43;;
9080;SDS011;13509;50.760;6.080;2024-03-22T00:06:40;21.27;;;11.73;;
9080;SDS011;13509;50.760;6.080;2024-03-22T00:09:07;20.10;;;10.37;;
9080;SDS011;13509;50.760;6.080;2024-03-22T00:11:34;19.03;;;11.10;;
9080;SDS011;13509;50.760;6.080;2024-03-22T00:14:00;19.43;;;10.67;;
9080;SDS011;13509;50.760;6.080;2024-03-22T00:16:28;19.80;;;11.23;;
9080;SDS011;13509;50.760;6.080;2024-03-22T00:18:54;19.40;;;10.53;;
9080;SDS011;13509;50.760;6.080;2024-03-22T00:21:22;18.07;;;11.23;;
9080;SDS011;13509;50.760;6.080;2024-03-22T00:23:50;23.30;;;11.37;;
9080;SDS011;13509;50.760;6.080;2024-03-22T00:26:17;19.10;;;10.77;;
9080;SDS011;13509;50.760;6.080;2024-03-22T00:28:44;24.50;;;11.53;;
9080;SDS011;13509;50.760;6.080;2024-03-22T00:31:11;19.33;;;11.13;;
9080;SDS011;13509;50.760;6.080;2024-03-22T00:33:37;22.67;;;11.53;;
9080;SDS011;13509;50.760;6.080;2024-03-22T00:36:05;21.93;;;11.60;;
9080;SDS011;13509;50.760;6.080;2024-03-22T00:38:31;19.47;;;11.03;;
9080;SDS011;13509;50.760;6.080;2024-03-22T00:41:00;20.40;;;11.20;;
9080;SDS011;13509;50.760;6.080;2024-03-22T00:43:26;23.73;;;11.77;;
9080;SDS011;13509;50.760;6.080;2024-03-22T00:45:54;21.57;;;11.17;;
9080;SDS011;13509;50.760;6.080;2024-03-22T00:48:20;17.80;;;11.07;;
9080;SDS011;13509;50.760;6.080;2024-03-22T00:50:48;20.43;;;10.63;;
9080;SDS011;13509;50.760;6.080;2024-03-22T00:53:14;23.00;;;10.80;;
9080;SDS011;13509;50.760;6.080;2024-03-22T00:55:42;20.87;;;11.37;;
9080;SDS011;13509;50.760;6.080;2024-03-22T00:58:09;20.03;;;11.73;;
9080;SDS011;13509;50.760;6.080;2024-03-22T01:00:37;21.73;;;11.57;;
9080;SDS011;13509;50.760;6.080;2024-03-22T01:03:05;19.40;;;10.93;;
9080;SDS011;13509;50.760;6.080;2024-03-22T01:05:34;19.83;;;11.00;;
9080;SDS011;13509;50.760;6.080;2024-03-22T01:08:00;21.33;;;11.87;;
9080;SDS011;13509;50.760;6.080;2024-03-22T01:10:27;21.30;;;11.30;;
9080;SDS011;13509;50.760;6.080;2024-03-22T01:12:54;16.47;;;10.47;;
9080;SDS011;13509;50.760;6.080;2024-03-22T01:15:22;18.50;;;10.97;;
9080;SDS011;13509;50.760;6.080;2024-03-22T01:17:49;22.43;;;11.30;;
9080;SDS011;13509;50.760;6.080;2024-03-22T01:20:16;18.10;;;11.60;;
9080;SDS011;13509;50.760;6.080;2024-03-22T01:22:42;20.27;;;11.27;;
9080;SDS011;13509;50.760;6.080;2024-03-22T01:25:10;23.43;;;11.70;;
9080;SDS011;13509;50.760;6.080;2024-03-22T01:27:36;19.67;;;11.00;;
9080;SDS011;13509;50.760;6.080;2024-03-22T01:30:04;19.40;;;11.23;;
9080;SDS011;13509;50.760;6.080;2024-03-22T01:32:32;21.43;;;10.77;;
9080;SDS011;13509;50.760;6.080;2024-03-22T01:34:59;18.97;;;11.00;;
9080;SDS011;13509;50.760;6.080;2024-03-22T01:37:25;19.13;;;11.60;;
9080;SDS011;13509;50.760;6.080;2024-03-22T01:39:53;17.50;;;10.40;;
9080;SDS011;13509;50.760;6.080;2024-03-22T01:42:19;19.30;;;10.20;;
9080;SDS011;13509;50.760;6.080;2024-03-22T01:44:48;17.13;;;10.07;;
9080;SDS011;13509;50.760;6.080;2024-03-22T01:47:15;20.20;;;11.20;;
9080;SDS011;13509;50.760;6.080;2024-03-22T01:49:44;20.40;;;11.80;;
9080;SDS011;13509;50.760;6.080;2024-03-22T01:52:10;18.33;;;11.03;;
9080;SDS011;13509;50.760;6.080;2024-03-22T01:54:38;18.93;;;10.47;;
9080;SDS011;13509;50.760;6.080;2024-03-22T01:57:04;17.03;;;9.43;;
9080;SDS011;13509;50.760;6.080;2024-03-22T01:59:32;19.27;;;10.83;;
9080;SDS011;13509;50.760;6.080;2024-03-22T02:01:59;18.63;;;10.40;;
9080;SDS011;13509;50.760;6.080;2024-03-22T02:04:28;21.70;;;10.30;;
9080;SDS011;13509;50.760;6.080;2024-03-22T02:06:56;23.33;;;10.77;;
9080;SDS011;13509;50.760;6.080;2024-03-22T02:09:24;17.57;;;10.57;;
9080;SDS011;13509;50.760;6.080;2024-03-22T02:11:50;18.07;;;9.87;;
9080;SDS011;13509;50.760;6.080;2024-03-22T02:14:18;17.73;;;9.97;;
9080;SDS011;13509;50.760;6.080;2024-03-22T02:16:44;15.87;;;10.40;;
9080;SDS011;13509;50.760;6.080;2024-03-22T02:19:12;17.43;;;9.83;;
9080;SDS011;13509;50.760;6.080;2024-03-22T02:21:38;15.90;;;10.27;;
9080;SDS011;13509;50.760;6.080;2024-03-22T02:24:07;20.53;;;10.53;;
9080;SDS011;13509;50.760;6.080;2024-03-22T02:26:33;17.57;;;10.23;;
9080;SDS011;13509;50.760;6.080;2024-03-22T02:29:00;20.30;;;10.17;;
9080;SDS011;13509;50.760;6.080;2024-03-22T02:31:27;18.23;;;10.73;;
9080;SDS011;13509;50.760;6.080;2024-03-22T02:33:54;15.90;;;9.97;;
9080;SDS011;13509;50.760;6.080;2024-03-22T02:36:21;17.63;;;9.70;;
9080;SDS011;13509;50.760;6.080;2024-03-22T02:38:48;18.43;;;9.67;;
9080;SDS011;13509;50.760;6.080;2024-03-22T02:41:16;15.67;;;9.57;;
9080;SDS011;13509;50.760;6.080;2024-03-22T02:43:43;17.83;;;9.70;;
9080;SDS011;13509;50.760;6.080;2024-03-22T02:46:09;15.03;;;9.63;;
9080;SDS011;13509;50.760;6.080;2024-03-22T02:48:37;17.50;;;9.77;;
9080;SDS011;13509;50.760;6.080;2024-03-22T02:51:04;17.37;;;9.50;;
9080;SDS011;13509;50.760;6.080;2024-03-22T02:53:31;16.73;;;9.83;;
9080;SDS011;13509;50.760;6.080;2024-03-22T02:55:59;14.77;;;9.40;;
9080;SDS011;13509;50.760;6.080;2024-03-22T02:58:28;15.27;;;9.70;;
9080;SDS011;13509;50.760;6.080;2024-03-22T03:00:54;17.17;;;9.63;;
9080;SDS011;13509;50.760;6.080;2024-03-22T03:03:22;14.40;;;8.63;;
9080;SDS011;13509;50.760;6.080;2024-03-22T03:05:48;18.97;;;9.47;;
9080;SDS011;13509;50.760;6.080;2024-03-22T03:08:16;12.70;;;8.47;;
9080;SDS011;13509;50.760;6.080;2024-03-22T03:10:42;15.83;;;9.00;;
9080;SDS011;13509;50.760;6.080;2024-03-22T03:13:10;16.87;;;8.83;;
9080;SDS011;13509;50.760;6.080;2024-03-22T03:15:46;17.40;;;9.97;;
9080;SDS011;13509;50.760;6.080;2024-03-22T03:18:19;15.50;;;8.97;;
9080;SDS011;13509;50.760;6.080;2024-03-22T03:20:50;16.13;;;8.43;;
9080;SDS011;13509;50.760;6.080;2024-03-22T03:23:17;14.33;;;8.97;;
9080;SDS011;13509;50.760;6.080;2024-03-22T03:25:43;15.50;;;9.07;;
9080;SDS011;13509;50.760;6.080;2024-03-22T03:28:11;14.90;;;9.20;;
9080;SDS011;13509;50.760;6.080;2024-03-22T03:30:38;16.03;;;9.33;;
9080;SDS011;13509;50.760;6.080;2024-03-22T03:33:07;14.93;;;9.97;;
9080;SDS011;13509;50.760;6.080;2024-03-22T03:35:33;17.20;;;9.33;;
9080;SDS011;13509;50.760;6.080;2024-03-22T03:38:01;15.40;;;9.07;;
9080;SDS011;13509;50.760;6.080;2024-03-22T03:40:27;14.00;;;9.40;;
9080;SDS011;13509;50.760;6.080;2024-03-22T03:42:54;16.87;;;9.60;;
9080;SDS011;13509;50.760;6.080;2024-03-22T03:45:21;13.20;;;8.70;;
9080;SDS011;13509;50.760;6.080;2024-03-22T03:47:48;15.20;;;9.53;;
9080;SDS011;13509;50.760;6.080;2024-03-22T03:50:16;16.93;;;10.03;;
9080;SDS011;13509;50.760;6.080;2024-03-22T03:52:43;19.17;;;9.77;;
9080;SDS011;13509;50.760;6.080;2024-03-22T03:55:10;16.90;;;9.63;;
9080;SDS011;13509;50.760;6.080;2024-03-22T03:57:37;20.87;;;9.10;;
9080;SDS011;13509;50.760;6.080;2024-03-22T04:00:04;16.23;;;9.17;;
9080;SDS011;13509;50.760;6.080;2024-03-22T04:02:31;19.37;;;9.17;;
9080;SDS011;13509;50.760;6.080;2024-03-22T04:04:58;16.60;;;10.00;;
9080;SDS011;13509;50.760;6.080;2024-03-22T04:07:26;18.57;;;9.97;;
9080;SDS011;13509;50.760;6.080;2024-03-22T04:09:54;14.90;;;9.20;;
9080;SDS011;13509;50.760;6.080;2024-03-22T04:12:21;14.97;;;9.73;;
9080;SDS011;13509;50.760;6.080;2024-03-22T04:14:48;15.97;;;10.50;;
9080;SDS011;13509;50.760;6.080;2024-03-22T04:17:15;15.33;;;9.80;;
9080;SDS011;13509;50.760;6.080;2024-03-22T04:19:42;17.17;;;10.40;;
9080;SDS011;13509;50.760;6.080;2024-03-22T04:22:09;13.87;;;9.63;;
9080;SDS011;13509;50.760;6.080;2024-03-22T04:24:37;16.47;;;9.97;;
9080;SDS011;13509;50.760;6.080;2024-03-22T04:27:04;16.77;;;9.53;;
9080;SDS011;13509;50.760;6.080;2024-03-22T04:29:32;16.13;;;10.03;;
9080;SDS011;13509;50.760;6.080;2024-03-22T04:31:59;15.23;;;9.70;;
9080;SDS011;13509;50.760;6.080;2024-03-22T04:34:26;16.20;;;9.63;;
9080;SDS011;13509;50.760;6.080;2024-03-22T04:36:53;16.20;;;9.60;;
9080;SDS011;13509;50.760;6.080;2024-03-22T04:39:21;15.57;;;9.20;;
9080;SDS011;13509;50.760;6.080;2024-03-22T04:41:49;15.87;;;9.30;;
9080;SDS011;13509;50.760;6.080;2024-03-22T04:44:16;13.80;;;9.07;;
9080;SDS011;13509;50.760;6.080;2024-03-22T04:46:44;18.90;;;9.57;;
9080;SDS011;13509;50.760;6.080;2024-03-22T04:49:10;14.73;;;8.87;;
9080;SDS011;13509;50.760;6.080;2024-03-22T04:51:37;15.07;;;9.33;;
9080;SDS011;13509;50.760;6.080;2024-03-22T04:54:04;16.30;;;9.03;;
9080;SDS011;13509;50.760;6.080;2024-03-22T04:56:31;15.47;;;9.43;;
9080;SDS011;13509;50.760;6.080;2024-03-22T04:58:59;17.63;;;9.90;;
9080;SDS011;13509;50.760;6.080;2024-03-22T05:01:26;16.70;;;9.87;;
9080;SDS011;13509;50.760;6.080;2024-03-22T05:03:53;11.67;;;8.40;;
9080;SDS011;13509;50.760;6.080;2024-03-22T05:06:20;16.30;;;9.07;;
9080;SDS011;13509;50.760;6.080;2024-03-22T05:08:46;13.83;;;9.13;;
9080;SDS011;13509;50.760;6.080;2024-03-22T05:11:14;14.90;;;9.63;;
9080;SDS011;13509;50.760;6.080;2024-03-22T05:13:40;15.80;;;9.60;;
9080;SDS011;13509;50.760;6.080;2024-03-22T05:16:09;16.07;;;10.10;;
9080;SDS011;13509;50.760;6.080;2024-03-22T05:18:36;17.90;;;9.47;;
9080;SDS011;13509;50.760;6.080;2024-03-22T05:21:04;15.47;;;9.77;;
9080;SDS011;13509;50.760;6.080;2024-03-22T05:23:31;16.93;;;10.33;;
9080;SDS011;13509;50.760;6.080;2024-03-22T05:25:58;15.87;;;9.10;;
9080;SDS011;13509;50.760;6.080;2024-03-22T05:28:25;16.93;;;10.37;;
9080;SDS011;13509;50.760;6.080;2024-03-22T05:30:52;14.50;;;9.73;;
9080;SDS011;13509;50.760;6.080;2024-03-22T05:33:20;19.70;;;10.07;;
9080;SDS011;13509;50.760;6.080;2024-03-22T05:35:47;23.13;;;10.77;;
9080;SDS011;13509;50.760;6.080;2024-03-22T05:38:14;19.07;;;10.30;;
9080;SDS011;13509;50.760;6.080;2024-03-22T05:40:41;17.83;;;10.53;;
9080;SDS011;13509;50.760;6.080;2024-03-22T05:43:07;18.30;;;10.67;;
9080;SDS011;13509;50.760;6.080;2024-03-22T05:45:35;17.80;;;10.97;;
9080;SDS011;13509;50.760;6.080;2024-03-22T05:48:01;15.20;;;10.10;;
9080;SDS011;13509;50.760;6.080;2024-03-22T05:50:30;15.93;;;9.83;;
9080;SDS011;13509;50.760;6.080;2024-03-22T05:52:56;18.60;;;10.70;;
9080;SDS011;13509;50.760;6.080;2024-03-22T05:55:24;17.67;;;9.70;;
9080;SDS011;13509;50.760;6.080;2024-03-22T05:57:52;17.23;;;9.83;;
9080;SDS011;13509;50.760;6.080;2024-03-22T06:00:20;17.50;;;11.07;;
9080;SDS011;13509;50.760;6.080;2024-03-22T06:02:46;14.37;;;9.87;;
9080;SDS011;13509;50.760;6.080;2024-03-22T06:05:14;19.23;;;10.67;;
9080;SDS011;13509;50.760;6.080;2024-03-22T06:07:41;19.13;;;9.90;;
9080;SDS011;13509;50.760;6.080;2024-03-22T06:10:11;14.70;;;9.40;;
9080;SDS011;13509;50.760;6.080;2024-03-22T06:12:37;17.33;;;9.80;;
9080;SDS011;13509;50.760;6.080;2024-03-22T06:15:05;16.47;;;8.87;;
9080;SDS011;13509;50.760;6.080;2024-03-22T06:17:32;12.73;;;8.60;;
9080;SDS011;13509;50.760;6.080;2024-03-22T06:19:59;14.20;;;7.63;;
9080;SDS011;13509;50.760;6.080;2024-03-22T06:22:26;13.20;;;7.70;;
9080;SDS011;13509;50.760;6.080;2024-03-22T06:24:55;11.87;;;7.03;;
9080;SDS011;13509;50.760;6.080;2024-03-22T06:27:21;10.93;;;6.80;;
9080;SDS011;13509;50.760;6.080;2024-03-22T06:29:49;13.27;;;7.07;;
9080;SDS011;13509;50.760;6.080;2024-03-22T06:32:15;9.43;;;6.30;;
9080;SDS011;13509;50.760;6.080;2024-03-22T06:34:43;10.43;;;5.40;;
9080;SDS011;13509;50.760;6.080;2024-03-22T06:37:09;8.27;;;6.10;;
9080;SDS011;13509;50.760;6.080;2024-03-22T06:39:36;7.93;;;5.70;;
9080;SDS011;13509;50.760;6.080;2024-03-22T06:42:04;9.73;;;5.70;;
9080;SDS011;13509;50.760;6.080;2024-03-22T06:44:31;11.03;;;5.47;;
9080;SDS011;13509;50.760;6.080;2024-03-22T06:46:58;10.13;;;6.37;;
9080;SDS011;13509;50.760;6.080;2024-03-22T06:49:25;8.70;;;5.80;;
9080;SDS011;13509;50.760;6.080;2024-03-22T06:51:52;11.30;;;6.30;;
9080;SDS011;13509;50.760;6.080;2024-03-22T06:54:19;8.33;;;6.23;;
9080;SDS011;13509;50.760;6.080;2024-03-22T06:56:45;12.17;;;6.40;;
9080;SDS011;13509;50.760;6.080;2024-03-22T06:59:14;10.97;;;6.23;;
9080;SDS011;13509;50.760;6.080;2024-03-22T07:01:40;12.10;;;6.90;;
9080;SDS011;13509;50.760;6.080;2024-03-22T07:04:08;10.87;;;6.80;;
9080;SDS011;13509;50.760;6.080;2024-03-22T07:06:34;12.97;;;7.33;;
9080;SDS011;13509;50.760;6.080;2024-03-22T07:09:02;11.73;;;7.80;;
9080;SDS011;13509;50.760;6.080;2024-03-22T07:11:29;11.77;;;7.77;;
9080;SDS011;13509;50.760;6.080;2024-03-22T07:13:58;13.07;;;7.67;;
9080;SDS011;13509;50.760;6.080;2024-03-22T07:16:26;12.63;;;8.33;;
9080;SDS011;13509;50.760;6.080;2024-03-22T07:18:53;13.70;;;8.40;;
9080;SDS011;13509;50.760;6.080;2024-03-22T07:21:19;14.33;;;8.97;;
9080;SDS011;13509;50.760;6.080;2024-03-22T07:23:47;15.67;;;10.13;;
9080;SDS011;13509;50.760;6.080;2024-03-22T07:26:13;18.23;;;10.33;;
9080;SDS011;13509;50.760;6.080;2024-03-22T07:28:40;17.77;;;10.30;;
9080;SDS011;13509;50.760;6.080;2024-03-22T07:31:07;17.07;;;10.43;;
9080;SDS011;13509;50.760;6.080;2024-03-22T07:33:36;16.47;;;10.33;;
9080;SDS011;13509;50.760;6.080;2024-03-22T07:36:04;17.50;;;11.27;;
9080;SDS011;13509;50.760;6.080;2024-03-22T07:38:32;24.20;;;11.80;;
9080;SDS011;13509;50.760;6.080;2024-03-22T07:40:59;19.53;;;11.20;;
9080;SDS011;13509;50.760;6.080;2024-03-22T07:43:26;18.63;;;11.40;;
9080;SDS011;13509;50.760;6.080;2024-03-22T07:45:52;19.63;;;12.00;;
9080;SDS011;13509;50.760;6.080;2024-03-22T07:48:20;20.40;;;11.50;;
9080;SDS011;13509;50.760;6.080;2024-03-22T07:50:55;18.80;;;11.20;;
9080;SDS011;13509;50.760;6.080;2024-03-22T07:53:22;19.93;;;11.00;;
9080;SDS011;13509;50.760;6.080;2024-03-22T07:55:49;18.57;;;11.70;;
9080;SDS011;13509;50.760;6.080;2024-03-22T07:58:16;17.37;;;11.43;;
9080;SDS011;13509;50.760;6.080;2024-03-22T08:00:42;17.10;;;11.20;;
9080;SDS011;13509;50.760;6.080;2024-03-22T08:03:13;16.67;;;11.33;;
9080;SDS011;13509;50.760;6.080;2024-03-22T08:05:40;20.57;;;11.17;;
9080;SDS011;13509;50.760;6.080;2024-03-22T08:08:09;20.50;;;11.83;;
9080;SDS011;13509;50.760;6.080;2024-03-22T08:10:35;18.30;;;10.87;;
9080;SDS011;13509;50.760;6.080;2024-03-22T08:13:03;17.47;;;11.00;;
9080;SDS011;13509;50.760;6.080;2024-03-22T08:15:29;20.53;;;12.10;;
9080;SDS011;13509;50.760;6.080;2024-03-22T08:17:57;19.73;;;11.53;;
9080;SDS011;13509;50.760;6.080;2024-03-22T08:20:23;20.33;;;11.63;;
9080;SDS011;13509;50.760;6.080;2024-03-22T08:22:51;17.30;;;11.20;;
9080;SDS011;13509;50.760;6.080;2024-03-22T08:25:19;22.80;;;11.80;;
9080;SDS011;13509;50.760;6.080;2024-03-22T08:27:47;17.27;;;11.43;;
9080;SDS011;13509;50.760;6.080;2024-03-22T08:30:14;18.43;;;11.03;;
9080;SDS011;13509;50.760;6.080;2024-03-22T08:32:41;19.50;;;10.80;;
9080;SDS011;13509;50.760;6.080;2024-03-22T08:35:07;18.70;;;11.27;;
9080;SDS011;13509;50.760;6.080;2024-03-22T08:37:35;16.50;;;10.93;;
9080;SDS011;13509;50.760;6.080;2024-03-22T08:40:01;15.93;;;10.57;;
9080;SDS011;13509;50.760;6.080;2024-03-22T08:42:31;15.30;;;10.27;;
9080;SDS011;13509;50.760;6.080;2024-03-22T08:44:57;16.90;;;10.57;;
9080;SDS011;13509;50.760;6.080;2024-03-22T08:47:25;17.70;;;10.77;;
9080;SDS011;13509;50.760;6.080;2024-03-22T08:49:51;18.67;;;11.10;;
9080;SDS011;13509;50.760;6.080;2024-03-22T08:52:19;19.33;;;10.77;;
9080;SDS011;13509;50.760;6.080;2024-03-22T08:54:46;17.83;;;10.67;;
9080;SDS011;13509;50.760;6.080;2024-03-22T08:57:13;16.10;;;10.97;;
9080;SDS011;13509;50.760;6.080;2024-03-22T08:59:41;18.27;;;11.43;;
9080;SDS011;13509;50.760;6.080;2024-03-22T09:02:08;20.63;;;10.57;;
9080;SDS011;13509;50.760;6.080;2024-03-22T09:04:34;13.10;;;9.90;;
9080;SDS011;13509;50.760;6.080;2024-03-22T09:07:02;18.70;;;11.20;;
9080;SDS011;13509;50.760;6.080;2024-03-22T09:09:28;16.53;;;11.27;;
9080;SDS011;13509;50.760;6.080;2024-03-22T09:11:56;14.40;;;10.33;;
9080;SDS011;13509;50.760;6.080;2024-03-22T09:14:22;16.40;;;9.73;;
9080;SDS011;13509;50.760;6.080;2024-03-22T09:16:51;19.20;;;10.97;;
9080;SDS011;13509;50.760;6.080;2024-03-22T09:19:17;16.27;;;10.27;;
9080;SDS011;13509;50.760;6.080;2024-03-22T09:21:45;17.10;;;10.57;;
9080;SDS011;13509;50.760;6.080;2024-03-22T09:24:11;14.63;;;11.03;;
9080;SDS011;13509;50.760;6.080;2024-03-22T09:26:39;16.40;;;10.30;;
9080;SDS011;13509;50.760;6.080;2024-03-22T09:29:05;17.73;;;9.67;;
9080;SDS011;13509;50.760;6.080;2024-03-22T09:31:32;15.10;;;9.77;;
9080;SDS011;13509;50.760;6.080;2024-03-22T09:34:00;15.63;;;9.97;;
9080;SDS011;13509;50.760;6.080;2024-03-22T09:36:28;16.70;;;10.67;;
9080;SDS011;13509;50.760;6.080;2024-03-22T09:38:59;17.63;;;10.70;;
9080;SDS011;13509;50.760;6.080;2024-03-22T09:41:27;17.40;;;10.73;;
9080;SDS011;13509;50.760;6.080;2024-03-22T09:43:54;16.17;;;10.07;;
9080;SDS011;13509;50.760;6.080;2024-03-22T09:46:25;14.97;;;10.33;;
9080;SDS011;13509;50.760;6.080;2024-03-22T09:48:52;16.13;;;10.83;;
9080;SDS011;13509;50.760;6.080;2024-03-22T09:51:22;16.53;;;11.87;;
9080;SDS011;13509;50.760;6.080;2024-03-22T09:53:48;15.43;;;10.97;;
9080;SDS011;13509;50.760;6.080;2024-03-22T09:56:16;15.53;;;11.20;;
9080;SDS011;13509;50.760;6.080;2024-03-22T09:58:45;17.83;;;10.80;;
9080;SDS011;13509;50.760;6.080;2024-03-22T10:01:12;17.47;;;11.73;;
9080;SDS011;13509;50.760;6.080;2024-03-22T10:03:39;15.07;;;10.63;;
9080;SDS011;13509;50.760;6.080;2024-03-22T10:06:06;17.70;;;11.57;;
9080;SDS011;13509;50.760;6.080;2024-03-22T10:08:34;16.80;;;10.80;;
9080;SDS011;13509;50.760;6.080;2024-03-22T10:11:02;17.40;;;10.93;;
9080;SDS011;13509;50.760;6.080;2024-03-22T10:13:28;17.40;;;11.47;;
9080;SDS011;13509;50.760;6.080;2024-03-22T10:15:56;16.57;;;10.60;;
9080;SDS011;13509;50.760;6.080;2024-03-22T10:18:23;20.50;;;11.90;;
9080;SDS011;13509;50.760;6.080;2024-03-22T10:20:58;15.30;;;10.47;;
9080;SDS011;13509;50.760;6.080;2024-03-22T10:23:25;13.37;;;10.07;;
9080;SDS011;13509;50.760;6.080;2024-03-22T10:25:55;18.33;;;10.83;;
9080;SDS011;13509;50.760;6.080;2024-03-22T10:28:22;17.13;;;10.63;;
9080;SDS011;13509;50.760;6.080;2024-03-22T10:30:50;16.93;;;10.73;;
9080;SDS011;13509;50.760;6.080;2024-03-22T10:33:18;17.93;;;10.27;;
9080;SDS011;13509;50.760;6.080;2024-03-22T10:35:48;18.40;;;9.63;;
9080;SDS011;13509;50.760;6.080;2024-03-22T10:38:18;15.37;;;10.30;;
9080;SDS011;13509;50.760;6.080;2024-03-22T10:40:46;15.90;;;10.13;;
9080;SDS011;13509;50.760;6.080;2024-03-22T10:43:13;18.37;;;10.63;;
9080;SDS011;13509;50.760;6.080;2024-03-22T10:45:41;17.17;;;10.37;;
9080;SDS011;13509;50.760;6.080;2024-03-22T10:48:08;15.80;;;10.50;;
9080;SDS011;13509;50.760;6.080;2024-03-22T10:50:38;17.27;;;10.43;;
9080;SDS011;13509;50.760;6.080;2024-03-22T10:53:06;18.77;;;11.20;;
9080;SDS011;13509;50.760;6.080;2024-03-22T10:55:35;18.33;;;9.97;;
9080;SDS011;13509;50.760;6.080;2024-03-22T10:58:03;16.60;;;10.53;;
9080;SDS011;13509;50.760;6.080;2024-03-22T11:00:32;17.40;;;11.23;;
9080;SDS011;13509;50.760;6.080;2024-03-22T11:02:59;16.77;;;11.00;;
9080;SDS011;13509;50.760;6.080;2024-03-22T11:05:26;14.90;;;10.10;;
9080;SDS011;13509;50.760;6.080;2024-03-22T11:07:59;15.10;;;10.47;;
9080;SDS011;13509;50.760;6.080;2024-03-22T11:10:28;16.67;;;10.10;;
9080;SDS011;13509;50.760;6.080;2024-03-22T11:12:55;19.23;;;11.27;;
9080;SDS011;13509;50.760;6.080;2024-03-22T11:15:23;15.17;;;9.97;;
9080;SDS011;13509;50.760;6.080;2024-03-22T11:17:50;13.77;;;10.03;;
9080;SDS011;13509;50.760;6.080;2024-03-22T11:20:18;14.50;;;9.60;;
9080;SDS011;13509;50.760;6.080;2024-03-22T11:22:44;11.20;;;8.53;;
9080;SDS011;13509;50.760;6.080;2024-03-22T11:25:12;15.47;;;8.80;;
9080;SDS011;13509;50.760;6.080;2024-03-22T11:27:38;13.00;;;8.27;;
9080;SDS011;13509;50.760;6.080;2024-03-22T11:30:07;12.73;;;9.57;;
9080;SDS011;13509;50.760;6.080;2024-03-22T11:32:33;15.00;;;9.80;;
9080;SDS011;13509;50.760;6.080;2024-03-22T11:35:09;12.93;;;9.67;;
9080;SDS011;13509;50.760;6.080;2024-03-22T11:37:35;13.93;;;9.00;;
9080;SDS011;13509;50.760;6.080;2024-03-22T11:40:03;14.97;;;9.97;;
9080;SDS011;13509;50.760;6.080;2024-03-22T11:42:31;17.40;;;10.40;;
9080;SDS011;13509;50.760;6.080;2024-03-22T11:44:59;17.13;;;10.00;;
9080;SDS011;13509;50.760;6.080;2024-03-22T11:47:26;15.37;;;10.00;;
9080;SDS011;13509;50.760;6.080;2024-03-22T11:49:53;15.83;;;8.93;;
9080;SDS011;13509;50.760;6.080;2024-03-22T11:52:25;14.73;;;9.37;;
9080;SDS011;13509;50.760;6.080;2024-03-22T11:54:52;17.20;;;9.60;;
9080;SDS011;13509;50.760;6.080;2024-03-22T11:57:20;15.67;;;10.80;;
9080;SDS011;13509;50.760;6.080;2024-03-22T11:59:47;14.80;;;10.20;;
9080;SDS011;13509;50.760;6.080;2024-03-22T12:02:14;15.53;;;9.97;;
9080;SDS011;13509;50.760;6.080;2024-03-22T12:04:41;15.63;;;10.07;;
9080;SDS011;13509;50.760;6.080;2024-03-22T12:07:10;16.47;;;11.03;;
9080;SDS011;13509;50.760;6.080;2024-03-22T12:09:39;15.27;;;10.77;;
9080;SDS011;13509;50.760;6.080;2024-03-22T12:12:06;15.90;;;10.70;;
9080;SDS011;13509;50.760;6.080;2024-03-22T12:14:35;14.07;;;10.07;;
9080;SDS011;13509;50.760;6.080;2024-03-22T12:17:01;17.53;;;10.60;;
9080;SDS011;13509;50.760;6.080;2024-03-22T12:19:29;16.80;;;11.57;;
9080;SDS011;13509;50.760;6.080;2024-03-22T12:21:55;18.47;;;11.03;;
9080;SDS011;13509;50.760;6.080;2024-03-22T12:24:23;18.10;;;11.17;;
9080;SDS011;13509;50.760;6.080;2024-03-22T12:26:51;17.00;;;11.53;;
9080;SDS011;13509;50.760;6.080;2024-03-22T12:29:18;15.20;;;11.43;;
9080;SDS011;13509;50.760;6.080;2024-03-22T12:31:46;16.73;;;11.53;;
9080;SDS011;13509;50.760;6.080;2024-03-22T12:34:13;18.07;;;11.17;;
9080;SDS011;13509;50.760;6.080;2024-03-22T12:36:39;15.37;;;10.60;;
9080;SDS011;13509;50.760;6.080;2024-03-22T12:39:07;16.97;;;11.60;;
9080;SDS011;13509;50.760;6.080;2024-03-22T12:41:33;16.07;;;10.97;;
9080;SDS011;13509;50.760;6.080;2024-03-22T12:44:02;16.93;;;10.00;;
9080;SDS011;13509;50.760;6.080;2024-03-22T12:46:29;13.03;;;9.37;;
9080;SDS011;13509;50.760;6.080;2024-03-22T12:48:56;13.40;;;9.47;;
9080;SDS011;13509;50.760;6.080;2024-03-22T12:51:23;14.47;;;9.00;;
9080;SDS011;13509;50.760;6.080;2024-03-22T12:53:50;15.13;;;9.37;;
9080;SDS011;13509;50.760;6.080;2024-03-22T12:56:17;13.70;;;8.93;;
9080;SDS011;13509;50.760;6.080;2024-03-22T12:58:45;10.40;;;8.13;;
9080;SDS011;13509;50.760;6.080;2024-03-22T13:01:13;12.57;;;8.17;;
9080;SDS011;13509;50.760;6.080;2024-03-22T13:03:40;11.83;;;8.10;;
9080;SDS011;13509;50.760;6.080;2024-03-22T13:06:07;14.30;;;8.57;;
9080;SDS011;13509;50.760;6.080;2024-03-22T13:08:34;12.43;;;8.77;;
9080;SDS011;13509;50.760;6.080;2024-03-22T13:11:00;10.40;;;7.80;;
9080;SDS011;13509;50.760;6.080;2024-03-22T13:13:28;15.80;;;8.37;;
9080;SDS011;13509;50.760;6.080;2024-03-22T13:15:56;12.40;;;7.87;;
9080;SDS011;13509;50.760;6.080;2024-03-22T13:18:25;10.83;;;7.90;;
9080;SDS011;13509;50.760;6.080;2024-03-22T13:20:51;9.87;;;7.30;;
9080;SDS011;13509;50.760;6.080;2024-03-22T13:23:18;8.00;;;6.07;;
9080;SDS011;13509;50.760;6.080;2024-03-22T13:25:45;10.03;;;6.10;;
9080;SDS011;13509;50.760;6.080;2024-03-22T13:28:12;8.20;;;4.53;;
9080;SDS011;13509;50.760;6.080;2024-03-22T13:30:38;7.20;;;4.37;;
9080;SDS011;13509;50.760;6.080;2024-03-22T13:33:06;8.50;;;5.60;;
9080;SDS011;13509;50.760;6.080;2024-03-22T13:35:34;8.03;;;5.50;;
9080;SDS011;13509;50.760;6.080;2024-03-22T13:38:02;9.93;;;7.03;;
9080;SDS011;13509;50.760;6.080;2024-03-22T13:40:28;12.30;;;7.87;;
9080;SDS011;13509;50.760;6.080;2024-03-22T13:42:57;9.63;;;8.07;;
9080;SDS011;13509;50.760;6.080;2024-03-22T13:45:24;11.67;;;8.67;;
9080;SDS011;13509;50.760;6.080;2024-03-22T13:47:51;10.10;;;7.57;;
9080;SDS011;13509;50.760;6.080;2024-03-22T13:50:18;13.37;;;9.50;;
9080;SDS011;13509;50.760;6.080;2024-03-22T13:52:47;11.43;;;8.80;;
9080;SDS011;13509;50.760;6.080;2024-03-22T13:55:13;12.53;;;8.60;;
9080;SDS011;13509;50.760;6.080;2024-03-22T13:57:41;12.17;;;8.57;;
9080;SDS011;13509;50.760;6.080;2024-03-22T14:00:08;10.67;;;8.43;;
9080;SDS011;13509;50.760;6.080;2024-03-22T14:02:39;13.70;;;9.17;;
9080;SDS011;13509;50.760;6.080;2024-03-22T14:05:06;14.33;;;8.87;;
9080;SDS011;13509;50.760;6.080;2024-03-22T14:07:34;12.73;;;8.47;;
9080;SDS011;13509;50.760;6.080;2024-03-22T14:10:01;11.33;;;8.47;;
9080;SDS011;13509;50.760;6.080;2024-03-22T14:12:29;12.27;;;8.47;;
9080;SDS011;13509;50.760;6.080;2024-03-22T14:14:55;12.60;;;9.27;;
9080;SDS011;13509;50.760;6.080;2024-03-22T14:17:24;14.37;;;9.33;;
9080;SDS011;13509;50.760;6.080;2024-03-22T14:19:50;14.57;;;9.07;;
9080;SDS011;13509;50.760;6.080;2024-03-22T14:22:18;15.00;;;8.10;;
9080;SDS011;13509;50.760;6.080;2024-03-22T14:24:44;9.70;;;7.53;;
9080;SDS011;13509;50.760;6.080;2024-03-22T14:27:13;9.43;;;7.37;;
9080;SDS011;13509;50.760;6.080;2024-03-22T14:29:40;11.10;;;7.10;;
9080;SDS011;13509;50.760;6.080;2024-03-22T14:32:07;12.17;;;7.83;;
9080;SDS011;13509;50.760;6.080;2024-03-22T14:34:34;11.57;;;8.00;;
9080;SDS011;13509;50.760;6.080;2024-03-22T14:37:02;11.87;;;8.30;;
9080;SDS011;13509;50.760;6.080;2024-03-22T14:39:29;12.37;;;7.87;;
9080;SDS011;13509;50.760;6.080;2024-03-22T14:41:57;13.30;;;8.00;;